createdAt,value
2022-09-23T00:02:11.755Z,6.63
2022-09-23T00:05:14.651Z,6.88
2022-09-23T00:08:16.852Z,6.70
2022-09-23T00:11:24.294Z,7.13
2022-09-23T00:14:27.157Z,6.72
2022-09-23T00:17:29.430Z,6.70
2022-09-23T00:20:33.992Z,6.10
2022-09-23T00:23:36.505Z,6.18
2022-09-23T00:26:38.731Z,6.23
2022-09-23T00:29:41.272Z,5.90
2022-09-23T00:32:43.526Z,5.72
2022-09-23T00:35:45.941Z,5.75
2022-09-23T00:38:48.375Z,6.28
2022-09-23T00:41:50.658Z,5.23
2022-09-23T00:44:58.484Z,6.10
2022-09-23T00:48:02.294Z,5.70
2022-09-23T00:51:04.915Z,6.00
2022-09-23T00:54:07.877Z,5.93
2022-09-23T00:57:11.226Z,6.00
2022-09-23T01:00:14.099Z,6.05
2022-09-23T01:03:16.404Z,6.53
2022-09-23T01:06:18.653Z,6.60
2022-09-23T01:09:22.320Z,5.97
2022-09-23T01:12:39.601Z,6.50
2022-09-23T01:15:49.280Z,6.35
2022-09-23T01:19:01.869Z,6.50
2022-09-23T01:22:11.004Z,6.78
2022-09-23T01:25:28.760Z,6.43
2022-09-23T01:28:43.390Z,7.40
2022-09-23T01:32:00.288Z,7.30
2022-09-23T01:35:08.416Z,6.88
2022-09-23T01:38:13.215Z,6.80
2022-09-23T01:41:24.228Z,6.72
2022-09-23T01:44:30.811Z,6.30
2022-09-23T01:47:40.274Z,6.03
2022-09-23T01:50:59.228Z,6.28
2022-09-23T01:54:15.959Z,6.25
2022-09-23T01:57:34.479Z,5.97
2022-09-23T02:00:41.030Z,5.83
2022-09-23T02:04:22.503Z,6.03
2022-09-23T02:07:53.706Z,5.85
2022-09-23T02:10:59.112Z,6.38
2022-09-23T02:14:15.482Z,6.22
2022-09-23T02:17:24.721Z,6.03
2022-09-23T02:20:33.000Z,6.28
2022-09-23T02:23:45.018Z,6.53
2022-09-23T02:26:51.801Z,6.60
2022-09-23T02:30:09.781Z,7.32
2022-09-23T02:33:21.315Z,7.97
2022-09-23T02:36:32.339Z,7.25
2022-09-23T02:39:42.790Z,8.00
2022-09-23T02:42:44.944Z,8.25
2022-09-23T02:45:47.665Z,7.72
2022-09-23T02:48:53.507Z,7.27
2022-09-23T02:51:56.892Z,7.20
2022-09-23T02:55:00.926Z,7.20
2022-09-23T02:58:03.843Z,6.45
2022-09-23T03:01:11.697Z,6.95
2022-09-23T03:04:32.086Z,6.00
2022-09-23T03:07:53.044Z,6.03
2022-09-23T03:11:07.522Z,6.32
2022-09-23T03:14:19.853Z,6.03
2022-09-23T03:17:27.577Z,5.20
2022-09-23T03:20:37.369Z,5.27
2022-09-23T03:23:41.198Z,5.00
2022-09-23T03:26:45.864Z,5.15
2022-09-23T03:29:49.742Z,4.65
2022-09-23T03:32:52.375Z,4.60
2022-09-23T03:36:24.473Z,4.73
2022-09-23T03:39:44.504Z,6.82
2022-09-23T03:42:50.189Z,6.60
2022-09-23T03:45:57.571Z,6.65
2022-09-23T03:49:07.204Z,7.30
2022-09-23T03:52:09.778Z,6.43
2022-09-23T03:55:12.049Z,7.05
2022-09-23T03:58:14.577Z,6.60
2022-09-23T04:01:16.918Z,7.32
2022-09-23T04:04:19.237Z,6.63
2022-09-23T04:07:21.481Z,6.43
2022-09-23T04:10:24.122Z,5.40
2022-09-23T04:13:26.405Z,5.40
2022-09-23T04:16:29.114Z,4.72
2022-09-23T04:19:31.367Z,4.65
2022-09-23T04:22:35.060Z,4.97
2022-09-23T04:25:44.773Z,4.00
2022-09-23T04:28:46.975Z,4.43
2022-09-23T04:31:50.059Z,4.80
2022-09-23T04:34:52.329Z,4.80
2022-09-23T04:37:54.534Z,4.40
2022-09-23T04:40:57.101Z,4.35
2022-09-23T04:43:59.419Z,5.82
2022-09-23T04:47:01.731Z,5.28
2022-09-23T04:50:04.177Z,4.75
2022-09-23T04:53:06.480Z,4.23
2022-09-23T04:56:12.043Z,5.07
2022-09-23T04:59:14.426Z,4.95
2022-09-23T05:02:16.889Z,5.10
2022-09-23T05:05:21.053Z,5.45
2022-09-23T05:08:23.266Z,4.90
2022-09-23T05:11:26.147Z,4.55
2022-09-23T05:14:28.343Z,5.00
2022-09-23T05:17:31.297Z,5.00
2022-09-23T05:20:33.539Z,4.68
2022-09-23T05:23:36.432Z,5.40
2022-09-23T05:26:38.696Z,4.72
2022-09-23T05:29:41.100Z,4.88
2022-09-23T05:32:43.481Z,5.10
2022-09-23T05:35:48.633Z,5.10
2022-09-23T05:38:51.439Z,4.80
2022-09-23T05:41:55.622Z,4.70
2022-09-23T05:44:57.828Z,4.88
2022-09-23T05:48:00.007Z,4.72
2022-09-23T05:51:02.989Z,4.97
2022-09-23T05:54:05.775Z,4.67
2022-09-23T05:57:08.132Z,4.47
2022-09-23T06:00:11.011Z,4.80
2022-09-23T06:03:20.867Z,4.57
2022-09-23T06:06:31.371Z,4.47
2022-09-23T06:09:36.486Z,4.63
2022-09-23T06:12:39.199Z,4.20
2022-09-23T06:15:41.768Z,4.18
2022-09-23T06:18:45.303Z,4.75
2022-09-23T06:21:48.815Z,5.00
2022-09-23T06:24:51.020Z,4.93
2022-09-23T06:27:57.200Z,5.65
2022-09-23T06:31:00.726Z,5.88
2022-09-23T06:34:10.465Z,5.40
2022-09-23T06:37:19.795Z,6.68
2022-09-23T06:40:22.845Z,5.00
2022-09-23T06:43:26.021Z,6.03
2022-09-23T06:46:28.314Z,5.63
2022-09-23T06:49:31.520Z,5.78
2022-09-23T06:52:34.437Z,4.75
2022-09-23T06:55:36.662Z,5.57
2022-09-23T06:58:39.201Z,4.35
2022-09-23T07:01:41.700Z,4.53
2022-09-23T07:04:44.102Z,4.43
2022-09-23T07:07:46.397Z,4.75
2022-09-23T07:11:02.268Z,3.50
2022-09-23T07:14:04.620Z,4.32
2022-09-23T07:17:07.355Z,3.65
2022-09-23T07:20:11.511Z,3.72
2022-09-23T07:23:13.765Z,4.43
2022-09-23T07:26:18.053Z,4.30
2022-09-23T07:29:20.313Z,3.83
2022-09-23T07:32:23.234Z,3.20
2022-09-23T07:35:28.136Z,3.67
2022-09-23T07:38:31.439Z,3.15
2022-09-23T07:41:34.094Z,3.53
2022-09-23T07:44:36.322Z,3.80
2022-09-23T07:47:39.977Z,3.78
2022-09-23T07:50:42.230Z,2.90
2022-09-23T07:53:48.363Z,3.03
2022-09-23T07:56:50.568Z,3.10
2022-09-23T07:59:53.041Z,3.55
2022-09-23T08:02:55.222Z,2.90
2022-09-23T08:06:05.519Z,3.22
2022-09-23T08:09:07.738Z,2.55
2022-09-23T08:12:17.145Z,2.60
2022-09-23T08:15:19.359Z,2.70
2022-09-23T08:18:23.938Z,2.60
2022-09-23T08:21:26.177Z,2.80
2022-09-23T08:24:30.400Z,2.58
2022-09-23T08:27:33.399Z,2.83
2022-09-23T08:30:35.764Z,3.00
2022-09-23T08:33:37.993Z,3.10
2022-09-23T08:36:40.163Z,2.28
2022-09-23T08:39:42.373Z,1.73
2022-09-23T08:42:45.697Z,2.17
2022-09-23T08:45:48.115Z,2.30
2022-09-23T08:48:50.486Z,2.53
2022-09-23T08:51:54.892Z,2.10
2022-09-23T08:54:57.170Z,2.15
2022-09-23T08:58:27.846Z,2.93
2022-09-23T09:01:46.029Z,2.35
2022-09-23T09:04:52.497Z,2.97
2022-09-23T09:07:58.077Z,2.47
2022-09-23T09:11:00.873Z,3.08
2022-09-23T09:14:18.250Z,2.60
2022-09-23T09:17:39.905Z,2.67
2022-09-23T09:21:02.751Z,2.83
2022-09-23T09:24:27.060Z,2.65
2022-09-23T09:27:29.385Z,2.75
2022-09-23T09:30:33.038Z,2.20
2022-09-23T09:33:47.662Z,2.58
2022-09-23T09:37:07.533Z,3.15
2022-09-23T09:40:13.817Z,4.68
2022-09-23T09:43:23.250Z,3.55
2022-09-23T09:47:01.456Z,2.87
2022-09-23T09:50:10.614Z,2.63
2022-09-23T09:53:35.849Z,3.53
2022-09-23T09:56:39.982Z,2.78
2022-09-23T09:59:44.148Z,3.17
2022-09-23T10:02:46.812Z,2.70
2022-09-23T10:05:52.368Z,2.75
2022-09-23T10:09:13.860Z,2.45
2022-09-23T10:12:18.783Z,2.83
2022-09-23T10:15:44.892Z,2.70
2022-09-23T10:18:47.471Z,2.30
2022-09-23T10:22:00.229Z,2.72
2022-09-23T10:25:07.991Z,3.00
2022-09-23T10:28:32.276Z,2.40
2022-09-23T10:31:35.932Z,3.10
2022-09-23T10:34:43.481Z,3.53
2022-09-23T10:37:52.938Z,2.63
2022-09-23T10:41:15.688Z,2.80
2022-09-23T10:44:50.294Z,3.42
2022-09-23T10:48:21.830Z,2.72
2022-09-23T10:51:33.659Z,3.07
2022-09-23T10:54:58.258Z,2.53
2022-09-23T10:58:10.407Z,3.00
2022-09-23T11:01:17.204Z,2.75
2022-09-23T11:04:37.197Z,2.83
2022-09-23T11:07:45.117Z,3.13
2022-09-23T11:11:11.529Z,2.55
2022-09-23T11:14:25.950Z,2.55
2022-09-23T11:17:35.224Z,2.63
2022-09-23T11:21:04.736Z,1.98
2022-09-23T11:24:22.153Z,2.50
2022-09-23T11:27:39.370Z,2.10
2022-09-23T11:31:07.275Z,2.08
2022-09-23T11:34:26.052Z,2.10
2022-09-23T11:37:41.241Z,2.10
2022-09-23T11:40:46.627Z,2.97
2022-09-23T11:43:53.478Z,2.58
2022-09-23T11:47:07.763Z,2.65
2022-09-23T11:50:25.789Z,2.70
2022-09-23T11:53:38.231Z,2.20
2022-09-23T11:56:48.257Z,2.83
2022-09-23T11:59:57.301Z,2.63
2022-09-23T12:03:06.020Z,3.17
2022-09-23T12:06:16.124Z,3.20
2022-09-23T12:09:56.787Z,2.50
2022-09-23T12:13:00.939Z,2.50
2022-09-23T12:16:25.049Z,2.63
2022-09-23T12:19:33.255Z,2.10
2022-09-23T12:22:39.174Z,2.30
2022-09-23T12:25:54.895Z,1.80
2022-09-23T12:29:01.592Z,3.13
2022-09-23T12:32:09.975Z,1.77
2022-09-23T12:35:32.229Z,2.15
2022-09-23T12:39:04.406Z,2.03
2022-09-23T12:42:15.655Z,1.70
2022-09-23T12:45:28.234Z,1.97
2022-09-23T12:49:08.259Z,1.75
2022-09-23T12:52:14.186Z,2.22
2022-09-23T12:55:23.231Z,2.58
2022-09-23T12:58:38.344Z,2.15
2022-09-23T13:01:41.115Z,2.20
2022-09-23T13:05:21.800Z,2.05
2022-09-23T13:08:25.037Z,1.95
2022-09-23T13:11:29.417Z,2.70
2022-09-23T13:14:32.803Z,2.55
2022-09-23T13:17:39.830Z,1.73
2022-09-23T13:20:42.058Z,1.80
2022-09-23T13:24:12.804Z,2.25
2022-09-23T13:27:38.204Z,2.20
2022-09-23T13:30:49.286Z,2.10
2022-09-23T13:34:00.754Z,1.60
2022-09-23T13:37:22.475Z,1.83
2022-09-23T13:40:29.423Z,1.80
2022-09-23T13:43:41.366Z,2.20
2022-09-23T13:46:47.503Z,2.10
2022-09-23T13:49:49.916Z,2.10
2022-09-23T13:53:00.201Z,2.30
2022-09-23T13:56:10.184Z,2.10
2022-09-23T13:59:41.030Z,2.30
2022-09-23T14:02:44.061Z,2.00
2022-09-23T14:05:46.507Z,2.27
2022-09-23T14:08:50.292Z,1.98
2022-09-23T14:11:52.694Z,2.20
2022-09-23T14:14:55.036Z,2.38
2022-09-23T14:18:06.466Z,1.80
2022-09-23T14:21:30.431Z,2.13
2022-09-23T14:24:37.036Z,1.83
2022-09-23T14:27:41.048Z,1.92
2022-09-23T14:30:46.204Z,2.00
2022-09-23T14:33:48.527Z,1.75
2022-09-23T14:37:09.405Z,1.90
2022-09-23T14:40:18.243Z,2.60
2022-09-23T14:43:25.842Z,2.13
2022-09-23T14:46:30.271Z,1.90
2022-09-23T14:49:32.769Z,2.10
2022-09-23T14:52:34.975Z,1.93
2022-09-23T14:55:37.293Z,2.58
2022-09-23T14:58:57.115Z,2.63
2022-09-23T15:01:59.335Z,2.67
2022-09-23T15:05:31.231Z,2.78
2022-09-23T15:08:33.897Z,2.57
2022-09-23T15:11:36.320Z,2.45
2022-09-23T15:14:41.598Z,2.20
2022-09-23T15:17:44.325Z,2.28
2022-09-23T15:21:07.510Z,2.47
2022-09-23T15:24:36.358Z,2.40
2022-09-23T15:27:38.582Z,2.53
2022-09-23T15:30:41.278Z,2.50
2022-09-23T15:33:50.717Z,2.58
2022-09-23T15:36:54.085Z,2.65
2022-09-23T15:39:56.356Z,3.10
2022-09-23T15:43:01.263Z,3.08
2022-09-23T15:46:08.982Z,2.88
2022-09-23T15:49:28.422Z,3.80
2022-09-23T15:52:30.633Z,3.13
2022-09-23T15:55:33.799Z,2.77
2022-09-23T15:58:36.049Z,2.58
2022-09-23T16:01:38.828Z,2.70
2022-09-23T16:04:41.092Z,3.20
2022-09-23T16:07:43.331Z,3.58
2022-09-23T16:10:45.583Z,5.30
2022-09-23T16:13:47.850Z,6.00
2022-09-23T16:16:50.148Z,8.27
2022-09-23T16:19:55.883Z,10.65
2022-09-23T16:23:01.479Z,8.20
2022-09-23T16:26:26.985Z,7.97
2022-09-23T16:29:29.259Z,8.90
2022-09-23T16:32:31.492Z,10.68
2022-09-23T16:35:33.822Z,9.95
2022-09-23T16:38:36.121Z,3.97
2022-09-23T16:41:38.453Z,3.20
2022-09-23T16:44:41.560Z,3.30
2022-09-23T16:47:45.301Z,3.20
2022-09-23T16:50:47.774Z,3.95
2022-09-23T16:53:51.102Z,3.53
2022-09-23T16:56:55.213Z,3.20
2022-09-23T17:00:16.122Z,3.75
2022-09-23T17:03:37.010Z,3.55
2022-09-23T17:06:50.063Z,3.85
2022-09-23T17:09:52.622Z,4.28
2022-09-23T17:12:54.867Z,3.47
2022-09-23T17:15:57.190Z,4.70
2022-09-23T17:19:00.410Z,4.30
2022-09-23T17:22:02.711Z,3.75
2022-09-23T17:25:05.426Z,3.78
2022-09-23T17:28:07.668Z,4.30
2022-09-23T17:31:09.977Z,4.38
2022-09-23T17:34:12.864Z,13.95
2022-09-23T17:37:15.114Z,6.88
2022-09-23T17:40:18.032Z,5.93
2022-09-23T17:43:25.336Z,6.73
2022-09-23T17:46:30.087Z,10.90
2022-09-23T17:49:35.174Z,13.07
2022-09-23T17:52:37.400Z,12.32
2022-09-23T17:55:39.657Z,10.40
2022-09-23T17:58:42.661Z,11.23
2022-09-23T18:01:44.939Z,12.95
2022-09-23T18:04:47.295Z,13.02
